Карточка аэропорта URSS

Внимание!
Информация на этой странице в стадии наполнения.
Если вы не увидели какой-то информации, или заметили неточность - пожалуйста сообщите нам!
Спасибо!
Команда RU-STAFF
Название аэропортаСочи
Название аэропорта (англ.)Sochi
Превышение89 ft. (27.1 m.)
Координаты43°26.634', 39°56.55'
Высота перехода13000 ft
Эшелон переходаQNH>=977hPa: FL150; QNH<977hPa: FL160
Коды ответчика1060-1077
Зона ОрВДРостов-на-Дону РПИ (URRV)
Данные METARURSS 211700Z 27002MPS 9999 FEW100 18/15 Q1015 R02/010070 R06/010070 NOSIG RMK R06/30003G06MPS QFE760
Проноз погоды (TAF)URSS 211355Z 2115/2215 28006G11MPS 9999 FEW040 BECMG 2118/2119 05003G08MPS SCT016 TEMPO 2119/2124 BKN010 BECMG 2200/2202 04006MPS FEW016 SCT100 BECMG 2205/2207 24003G08MPS FEW040 BECMG 2210/2212 28005G10MPS
NOTAMshow/hide NOTAM
AWOS   TABLE

Информация о ВПП

ВПП Длина ВПП (м.) Покрытие Курс ВПП Частота ILS
062890Цементобетон58111.1
242890Цементобетон238 
022500Цементобетон22110.5
202500Цементобетон202 

Диспетчерские позиции

Позывной Наименование органа УВД Частота
URSS_DELСочи-Деливери132.700
URSS_APPСочи-Подход124.600
URSS_TWRСочи-Старт121.200
URSS_R_APPСочи-Круг119.700
URSS_GNDСочи-Руление119.000
URSSFM1119.000



Спутниковое изображение